createdAt,value
2023-05-20T00:02:20.676Z,12.10
2023-05-20T00:06:22.444Z,12.00
2023-05-20T00:10:24.245Z,11.70
2023-05-20T00:14:26.000Z,11.00
2023-05-20T00:18:27.808Z,11.40
2023-05-20T00:22:29.554Z,11.50
2023-05-20T00:26:31.426Z,11.70
2023-05-20T00:30:33.131Z,11.60
2023-05-20T00:34:34.861Z,11.10
2023-05-20T00:38:36.617Z,11.00
2023-05-20T00:42:38.366Z,11.10
2023-05-20T00:46:40.132Z,10.80
2023-05-20T00:50:41.881Z,10.60
2023-05-20T00:54:43.883Z,10.50
2023-05-20T00:58:45.907Z,10.70
2023-05-20T01:02:47.786Z,10.70
2023-05-20T01:06:49.688Z,10.70
2023-05-20T01:11:23.828Z,10.40
2023-05-20T01:15:28.060Z,10.20
2023-05-20T01:19:44.701Z,10.20
2023-05-20T01:23:46.433Z,10.10
2023-05-20T01:27:49.459Z,9.90
2023-05-20T01:31:51.930Z,10.00
2023-05-20T01:35:54.028Z,9.90
2023-05-20T01:39:57.097Z,10.00
2023-05-20T01:43:58.967Z,10.00
2023-05-20T01:48:01.801Z,10.10
2023-05-20T01:52:04.052Z,9.90
2023-05-20T01:56:06.217Z,9.60
2023-05-20T02:00:09.741Z,9.50
2023-05-20T02:04:11.867Z,9.60
2023-05-20T02:08:13.622Z,9.90
2023-05-20T02:12:18.109Z,9.50
2023-05-20T02:16:19.916Z,9.60
2023-05-20T02:20:21.959Z,9.40
2023-05-20T02:24:23.694Z,9.30
2023-05-20T02:28:25.611Z,9.20
2023-05-20T02:32:28.957Z,9.50
2023-05-20T02:36:32.435Z,9.60
2023-05-20T02:40:34.489Z,9.30
2023-05-20T02:44:36.347Z,9.20
2023-05-20T02:48:38.191Z,9.20
2023-05-20T02:52:42.257Z,9.50
2023-05-20T02:56:44.046Z,9.20
2023-05-20T03:00:45.969Z,9.10
2023-05-20T03:04:47.924Z,9.10
2023-05-20T03:08:49.702Z,9.30
2023-05-20T03:12:51.492Z,9.20
2023-05-20T03:16:56.008Z,8.90
2023-05-20T03:20:58.269Z,9.10
2023-05-20T03:25:00.593Z,9.10
2023-05-20T03:29:02.372Z,9.20
2023-05-20T03:33:05.867Z,9.20
2023-05-20T03:37:08.409Z,9.20
2023-05-20T03:41:10.476Z,9.10
2023-05-20T03:45:12.264Z,9.20
2023-05-20T03:49:13.954Z,9.10
2023-05-20T03:53:15.821Z,8.80
2023-05-20T03:57:17.583Z,8.80
2023-05-20T04:01:19.769Z,9.00
2023-05-20T04:05:21.699Z,9.10
2023-05-20T04:09:23.441Z,8.90
2023-05-20T04:13:28.573Z,8.90
2023-05-20T04:17:31.268Z,9.30
2023-05-20T04:21:33.233Z,9.20
2023-05-20T04:25:36.378Z,9.00
2023-05-20T04:29:38.738Z,9.00
2023-05-20T04:33:40.486Z,9.20
2023-05-20T04:37:42.652Z,9.30
2023-05-20T04:41:44.547Z,9.60
2023-05-20T04:45:48.125Z,9.90
2023-05-20T04:49:50.382Z,10.10
2023-05-20T04:53:52.146Z,10.10
2023-05-20T04:57:54.007Z,10.40
2023-05-20T05:01:56.103Z,10.40
2023-05-20T05:05:58.833Z,10.50
2023-05-20T05:10:01.118Z,10.60
2023-05-20T05:14:03.234Z,10.60
2023-05-20T05:18:05.047Z,10.60
2023-05-20T05:22:06.805Z,10.70
2023-05-20T05:26:09.014Z,10.70
2023-05-20T05:30:14.206Z,10.80
2023-05-20T05:34:18.326Z,10.90
2023-05-20T05:38:21.450Z,10.90
2023-05-20T05:42:23.164Z,11.00
2023-05-20T05:46:25.079Z,10.80
2023-05-20T05:50:26.870Z,10.80
2023-05-20T05:54:28.665Z,10.80
2023-05-20T05:58:31.197Z,10.80
2023-05-20T06:02:36.915Z,11.00
2023-05-20T06:06:38.812Z,11.00
2023-05-20T06:10:40.631Z,11.00
2023-05-20T06:14:42.384Z,11.10
2023-05-20T06:18:46.111Z,11.00
2023-05-20T06:22:47.913Z,11.10
2023-05-20T06:26:50.574Z,11.20
2023-05-20T06:30:54.638Z,11.40
2023-05-20T06:34:56.426Z,11.50
2023-05-20T06:38:58.133Z,11.50
2023-05-20T06:42:59.876Z,11.40
2023-05-20T06:47:01.729Z,11.60
2023-05-20T06:51:03.972Z,11.60
2023-05-20T06:55:06.295Z,11.90
2023-05-20T06:59:08.083Z,12.40
2023-05-20T07:03:11.762Z,12.40
2023-05-20T07:07:15.462Z,12.80
2023-05-20T07:11:18.456Z,13.10
2023-05-20T07:15:20.298Z,12.90
2023-05-20T07:19:22.106Z,13.00
2023-05-20T07:23:24.449Z,13.40
2023-05-20T07:27:28.362Z,13.70
2023-05-20T07:31:30.883Z,13.30
2023-05-20T07:35:33.040Z,13.30
2023-05-20T07:39:35.104Z,13.50
2023-05-20T07:43:37.099Z,13.70
2023-05-20T07:47:38.866Z,13.90
2023-05-20T07:51:40.728Z,14.30
2023-05-20T07:55:42.405Z,14.50
2023-05-20T07:59:44.988Z,14.40
2023-05-20T08:03:47.100Z,14.50
2023-05-20T08:07:49.053Z,14.50
2023-05-20T08:11:50.864Z,14.50
2023-05-20T08:15:56.153Z,15.10
2023-05-20T08:19:57.923Z,15.30
2023-05-20T08:23:59.648Z,15.30
2023-05-20T08:28:06.720Z,14.80
2023-05-20T08:32:08.567Z,15.40
2023-05-20T08:36:10.369Z,15.40
2023-05-20T08:40:12.902Z,15.50
2023-05-20T08:44:14.850Z,15.30
2023-05-20T08:48:18.272Z,16.10
2023-05-20T08:52:22.391Z,16.40
2023-05-20T08:56:28.611Z,16.20
2023-05-20T09:00:32.190Z,16.20
2023-05-20T09:04:34.006Z,15.90
2023-05-20T09:08:36.236Z,16.20
2023-05-20T09:12:41.053Z,16.60
2023-05-20T09:16:43.071Z,16.70
2023-05-20T09:20:48.005Z,16.30
2023-05-20T09:24:50.898Z,16.10
2023-05-20T09:28:52.524Z,16.40
2023-05-20T09:33:01.582Z,16.20
2023-05-20T09:37:04.846Z,16.50
2023-05-20T09:41:15.259Z,16.60
2023-05-20T09:45:17.052Z,16.70
2023-05-20T09:49:20.780Z,16.40
2023-05-20T09:53:23.903Z,16.80
2023-05-20T09:57:25.840Z,16.90
2023-05-20T10:01:27.740Z,16.90
2023-05-20T10:05:35.524Z,16.90
2023-05-20T10:10:02.306Z,16.90
2023-05-20T10:14:28.999Z,16.80
2023-05-20T10:18:33.892Z,17.40
2023-05-20T10:22:35.674Z,17.20
2023-05-20T10:26:42.115Z,16.70
2023-05-20T10:30:51.026Z,17.00
2023-05-20T10:34:52.964Z,17.10
2023-05-20T10:38:59.691Z,17.60
2023-05-20T10:43:35.688Z,17.60
2023-05-20T10:47:42.270Z,18.00
2023-05-20T10:51:46.521Z,18.00
2023-05-20T10:55:53.006Z,17.90
2023-05-20T10:59:55.960Z,17.80
2023-05-20T11:03:58.204Z,18.30
2023-05-20T11:08:10.758Z,17.50
2023-05-20T11:12:23.790Z,17.60
2023-05-20T11:16:25.766Z,17.80
2023-05-20T11:20:27.823Z,17.60
2023-05-20T11:24:29.656Z,17.50
2023-05-20T11:28:33.271Z,17.20
2023-05-20T11:32:35.133Z,17.30
2023-05-20T11:36:44.327Z,17.80
2023-05-20T11:40:54.335Z,18.10
2023-05-20T11:44:56.355Z,18.00
2023-05-20T11:48:58.283Z,18.10
2023-05-20T11:53:02.431Z,18.20
2023-05-20T11:57:06.388Z,17.80
2023-05-20T12:01:20.922Z,18.00
2023-05-20T12:05:23.891Z,17.80
2023-05-20T12:09:25.730Z,18.10
2023-05-20T12:13:27.547Z,18.00
2023-05-20T12:17:29.322Z,17.80
2023-05-20T12:21:31.897Z,18.20
2023-05-20T12:25:33.688Z,18.70
2023-05-20T12:29:35.445Z,18.70
2023-05-20T12:33:37.252Z,18.30
2023-05-20T12:37:43.051Z,18.60
2023-05-20T12:41:44.848Z,18.90
2023-05-20T12:45:46.930Z,18.60
2023-05-20T12:49:48.952Z,18.50
2023-05-20T12:53:50.888Z,19.00
2023-05-20T12:57:53.148Z,18.70
2023-05-20T13:01:54.905Z,18.30
2023-05-20T13:05:56.738Z,18.60
2023-05-20T13:09:59.762Z,18.40
2023-05-20T13:14:01.581Z,18.30
2023-05-20T13:18:05.865Z,18.50
2023-05-20T13:22:09.163Z,18.30
2023-05-20T13:26:11.330Z,18.30
2023-05-20T13:30:13.217Z,18.30
2023-05-20T13:34:15.250Z,18.30
2023-05-20T13:38:17.276Z,18.30
2023-05-20T13:42:19.031Z,18.60
2023-05-20T13:46:21.852Z,18.70
2023-05-20T13:50:23.744Z,18.60
2023-05-20T13:54:25.604Z,18.60
2023-05-20T13:58:27.483Z,18.60
2023-05-20T14:02:29.370Z,18.70
2023-05-20T14:06:32.035Z,19.00
2023-05-20T14:10:34.256Z,18.80
2023-05-20T14:14:37.025Z,18.80
2023-05-20T14:18:39.030Z,19.10
2023-05-20T14:22:40.735Z,18.60
2023-05-20T14:26:43.038Z,18.40
2023-05-20T14:30:44.745Z,18.80
2023-05-20T14:34:46.502Z,19.10
2023-05-20T14:38:49.526Z,18.70
2023-05-20T14:42:51.543Z,18.10
2023-05-20T14:46:53.522Z,18.50
2023-05-20T14:50:55.461Z,19.10
2023-05-20T14:54:57.173Z,19.00
2023-05-20T14:58:58.916Z,18.80
2023-05-20T15:03:01.062Z,18.30
2023-05-20T15:07:02.983Z,18.40
2023-05-20T15:11:04.852Z,18.80
2023-05-20T15:15:07.032Z,18.70
2023-05-20T15:19:08.886Z,18.70
2023-05-20T15:23:11.217Z,18.70
2023-05-20T15:27:13.007Z,18.20
2023-05-20T15:31:14.814Z,18.30
2023-05-20T15:35:16.708Z,18.40
2023-05-20T15:39:18.472Z,18.30
2023-05-20T15:43:20.313Z,18.60
2023-05-20T15:47:22.019Z,18.70
2023-05-20T15:51:23.878Z,18.60
2023-05-20T15:55:25.716Z,18.40
2023-05-20T15:59:27.590Z,18.60
2023-05-20T16:03:29.765Z,18.40
2023-05-20T16:07:31.665Z,18.30
2023-05-20T16:11:33.603Z,18.30
2023-05-20T16:15:37.973Z,18.30
2023-05-20T16:19:39.905Z,18.30
2023-05-20T16:23:41.732Z,18.40
2023-05-20T16:27:43.513Z,18.10
2023-05-20T16:31:48.056Z,17.80
2023-05-20T16:35:49.822Z,17.70
2023-05-20T16:39:51.564Z,17.80
2023-05-20T16:43:53.258Z,17.70
2023-05-20T16:47:56.460Z,17.70
2023-05-20T16:51:58.689Z,17.70
2023-05-20T16:56:00.843Z,17.60
2023-05-20T17:00:07.907Z,17.60
2023-05-20T17:04:09.915Z,17.70
2023-05-20T17:08:11.656Z,17.40
2023-05-20T17:12:13.504Z,17.50
2023-05-20T17:16:15.397Z,17.40
2023-05-20T17:20:17.216Z,17.40
2023-05-20T17:24:18.997Z,17.40
2023-05-20T17:28:20.932Z,17.40
2023-05-20T17:32:22.762Z,17.60
2023-05-20T17:36:24.666Z,17.60
2023-05-20T17:40:26.436Z,17.60
2023-05-20T17:44:28.305Z,17.50
2023-05-20T17:48:30.062Z,17.50
2023-05-20T17:52:31.817Z,17.60
2023-05-20T17:56:33.909Z,17.50
2023-05-20T18:00:42.208Z,17.40
2023-05-20T18:04:44.095Z,17.10
2023-05-20T18:08:45.968Z,17.30
2023-05-20T18:12:47.831Z,17.20
2023-05-20T18:16:49.919Z,17.20
2023-05-20T18:20:51.675Z,17.20
2023-05-20T18:24:53.525Z,17.00
2023-05-20T18:28:55.752Z,16.80
2023-05-20T18:32:57.852Z,16.50
2023-05-20T18:36:59.687Z,16.40
2023-05-20T18:41:01.543Z,16.10
2023-05-20T18:45:03.641Z,16.00
2023-05-20T18:49:05.864Z,16.00
2023-05-20T18:53:07.644Z,16.00
2023-05-20T18:57:09.584Z,16.10
2023-05-20T19:01:11.622Z,16.20
2023-05-20T19:05:13.508Z,16.00
2023-05-20T19:09:15.418Z,16.00
2023-05-20T19:13:17.217Z,16.00
2023-05-20T19:17:20.925Z,16.00
2023-05-20T19:21:23.021Z,15.90
2023-05-20T19:25:24.871Z,15.90
2023-05-20T19:29:26.739Z,15.80
2023-05-20T19:33:28.758Z,15.60
2023-05-20T19:37:31.159Z,15.40
2023-05-20T19:41:32.876Z,15.40
2023-05-20T19:45:36.551Z,15.40
2023-05-20T19:49:38.511Z,15.30
2023-05-20T19:53:40.372Z,15.20
2023-05-20T19:57:42.820Z,15.20
2023-05-20T20:01:44.879Z,15.10
2023-05-20T20:05:46.687Z,15.00
2023-05-20T20:09:51.538Z,15.00
2023-05-20T20:13:53.300Z,14.90
2023-05-20T20:17:55.250Z,14.90
2023-05-20T20:21:58.191Z,14.80
2023-05-20T20:26:00.007Z,14.70
2023-05-20T20:30:02.105Z,14.60
2023-05-20T20:34:05.164Z,14.40
2023-05-20T20:38:10.007Z,14.40
2023-05-20T20:42:12.000Z,14.50
2023-05-20T20:46:14.890Z,14.30
2023-05-20T20:50:17.066Z,14.20
2023-05-20T20:54:18.798Z,14.20
2023-05-20T20:58:20.590Z,14.20
2023-05-20T21:02:22.365Z,14.00
2023-05-20T21:06:24.149Z,14.10
2023-05-20T21:10:29.704Z,13.90
2023-05-20T21:14:31.474Z,14.00
2023-05-20T21:18:33.216Z,13.60
2023-05-20T21:22:34.908Z,13.70
2023-05-20T21:26:36.631Z,13.70
2023-05-20T21:30:38.389Z,13.70
2023-05-20T21:34:40.125Z,13.70
2023-05-20T21:38:41.941Z,13.70
2023-05-20T21:42:43.761Z,13.50
2023-05-20T21:46:45.564Z,13.40
2023-05-20T21:50:47.379Z,13.40
2023-05-20T21:54:49.129Z,13.40
2023-05-20T21:58:51.114Z,13.30
2023-05-20T22:02:52.938Z,13.40
2023-05-20T22:06:56.139Z,13.10
2023-05-20T22:10:59.414Z,13.00
2023-05-20T22:15:01.294Z,12.70
2023-05-20T22:19:03.397Z,12.90
2023-05-20T22:23:05.233Z,12.90
2023-05-20T22:27:07.545Z,12.90
2023-05-20T22:31:09.474Z,12.90
2023-05-20T22:35:13.119Z,12.90
2023-05-20T22:39:15.092Z,12.90
2023-05-20T22:43:17.363Z,12.80
2023-05-20T22:47:19.097Z,12.70
2023-05-20T22:51:21.524Z,12.70
2023-05-20T22:55:23.897Z,12.60
2023-05-20T22:59:26.703Z,12.60
2023-05-20T23:03:28.455Z,12.70
2023-05-20T23:07:31.343Z,12.80
2023-05-20T23:11:33.085Z,12.70
2023-05-20T23:15:35.020Z,12.50
2023-05-20T23:19:36.962Z,12.80
2023-05-20T23:23:38.834Z,12.80
2023-05-20T23:27:40.756Z,12.90
2023-05-20T23:31:42.536Z,13.00
2023-05-20T23:35:44.256Z,13.00
2023-05-20T23:39:46.760Z,13.00
2023-05-20T23:43:48.581Z,13.00
2023-05-20T23:47:50.716Z,13.10
2023-05-20T23:51:55.901Z,13.00
2023-05-20T23:55:57.557Z,12.90
2023-05-20T23:59:59.542Z,12.90
